Time;durP1;ratioP1;P1;durP2;ratioP2;P2;SDS_P1;SDS_P2;PMS_P1;PMS_P2;Temp;Humidity;BMP_temperature;BMP_pressure;BME280_temperature;BME280_humidity;BME280_pressure;Samples;Min_cycle;Max_cycle;Signal;HPM_P1;HPM_P2
2024/01/27 00:01:44;;;;;;;3.85;1.88;;;;;;;-4.73;100.00;100797.59;6206881;23;20047;-55
2024/01/27 00:04:15;;;;;;;3.35;1.80;;;;;;;-4.72;100.00;100799.34;6191897;23;20095;-58
2024/01/27 00:06:47;;;;;;;3.38;1.70;;;;;;;-4.69;100.00;100796.94;6206995;23;20055;-57
2024/01/27 00:09:17;;;;;;;2.88;1.80;;;;;;;-4.62;100.00;100797.38;6191716;23;20111;-57
2024/01/27 00:11:48;;;;;;;2.33;1.67;;;;;;;-4.62;100.00;100796.47;6206437;23;20100;-56
2024/01/27 00:14:18;;;;;;;3.45;2.10;;;;;;;-4.62;100.00;100799.03;6192340;23;20016;-57
2024/01/27 00:16:49;;;;;;;3.47;1.60;;;;;;;-4.61;100.00;100798.25;6206498;23;20028;-53
2024/01/27 00:19:19;;;;;;;6.28;2.00;;;;;;;-4.57;100.00;100792.50;6191957;23;20043;-55
2024/01/27 00:21:51;;;;;;;3.35;2.05;;;;;;;-4.49;100.00;100793.81;6206759;23;20026;-56
2024/01/27 00:24:21;;;;;;;2.58;1.60;;;;;;;-4.56;100.00;100787.50;6192069;23;20024;-56
2024/01/27 00:26:52;;;;;;;3.38;1.80;;;;;;;-4.40;100.00;100794.25;6207040;23;20086;-58
2024/01/27 00:29:22;;;;;;;4.25;1.70;;;;;;;-4.36;100.00;100800.41;6192195;23;20065;-58
2024/01/27 00:31:54;;;;;;;2.28;1.67;;;;;;;-4.44;100.00;100797.47;6206587;23;20107;-57
2024/01/27 00:34:25;;;;;;;4.93;1.60;;;;;;;-4.44;100.00;100800.03;6192080;23;20095;-55
2024/01/27 00:36:57;;;;;;;2.03;1.40;;;;;;;-4.41;100.00;100789.97;6206186;23;20027;-54
2024/01/27 00:39:27;;;;;;;2.30;1.38;;;;;;;-4.29;100.00;100786.28;6191771;23;20064;-55
2024/01/27 00:41:58;;;;;;;3.28;1.63;;;;;;;-4.28;100.00;100788.94;6206412;23;20020;-57
2024/01/27 00:44:28;;;;;;;1.45;1.35;;;;;;;-4.31;100.00;100798.13;6191978;23;20082;-58
2024/01/27 00:46:59;;;;;;;2.42;1.80;;;;;;;-4.19;100.00;100789.41;6206717;23;20044;-57
2024/01/27 00:49:29;;;;;;;2.38;1.40;;;;;;;-4.19;100.00;100793.66;6191785;23;20464;-58
2024/01/27 00:52:02;;;;;;;2.05;1.35;;;;;;;-4.16;100.00;100788.69;6205966;23;20230;-59
2024/01/27 00:54:32;;;;;;;3.05;1.60;;;;;;;-4.10;100.00;100799.19;6191089;23;20033;-58
2024/01/27 00:57:03;;;;;;;3.22;1.33;;;;;;;-4.07;100.00;100794.25;6205758;23;20441;-55
2024/01/27 00:59:33;;;;;;;1.50;1.40;;;;;;;-4.04;100.00;100789.31;6192607;23;20539;-55
2024/01/27 01:02:04;;;;;;;3.67;1.67;;;;;;;-4.03;100.00;100780.84;6206441;23;20487;-55
2024/01/27 01:04:34;;;;;;;4.38;2.05;;;;;;;-3.85;100.00;100796.19;6191730;23;20024;-55
2024/01/27 01:07:06;;;;;;;1.85;1.67;;;;;;;-3.93;100.00;100793.28;6206567;23;20024;-54
2024/01/27 01:09:37;;;;;;;1.65;1.55;;;;;;;-4.02;100.00;100803.03;6192050;23;20496;-56
2024/01/27 01:12:09;;;;;;;1.58;1.42;;;;;;;-4.00;100.00;100785.22;6206800;23;20581;-58
2024/01/27 01:14:40;;;;;;;1.40;1.30;;;;;;;-3.93;100.00;100792.41;6191828;23;20412;-59
2024/01/27 01:17:10;;;;;;;1.55;1.45;;;;;;;-3.96;100.00;100793.13;6206280;23;20119;-56
2024/01/27 01:19:42;;;;;;;1.50;1.40;;;;;;;-3.88;100.00;100790.09;6191348;23;20456;-54
2024/01/27 01:22:14;;;;;;;2.83;1.67;;;;;;;-3.86;100.00;100797.00;6202639;23;20024;-58
2024/01/27 01:24:44;;;;;;;1.75;1.65;;;;;;;-4.04;100.00;100794.41;6206055;23;20023;-59
2024/01/27 01:27:16;;;;;;;1.40;1.30;;;;;;;-4.18;100.00;100795.38;6189771;23;20024;-57
2024/01/27 01:29:46;;;;;;;1.67;1.40;;;;;;;-4.22;100.00;100806.22;6204791;23;20668;-57
2024/01/27 01:32:17;;;;;;;2.92;1.40;;;;;;;-4.36;100.00;100806.38;6191691;23;20031;-57
2024/01/27 01:34:48;;;;;;;1.30;1.20;;;;;;;-4.35;100.00;100803.03;6203940;23;20028;-57
2024/01/27 01:37:20;;;;;;;1.40;1.20;;;;;;;-4.37;100.00;100799.53;6189441;23;20046;-54
2024/01/27 01:39:51;;;;;;;1.50;1.20;;;;;;;-4.29;100.00;100791.38;6205308;23;20103;-58
2024/01/27 01:42:24;;;;;;;1.52;1.30;;;;;;;-4.27;100.00;100775.34;6190734;23;20089;-55
2024/01/27 01:44:55;;;;;;;1.58;1.48;;;;;;;-4.16;100.00;100778.47;6205709;23;20028;-55
2024/01/27 01:47:26;;;;;;;1.40;1.30;;;;;;;-4.08;100.00;100782.28;6191979;23;20024;-55
2024/01/27 01:49:57;;;;;;;3.10;1.60;;;;;;;-4.06;100.00;100774.72;6205328;23;20034;-53
2024/01/27 01:52:29;;;;;;;1.38;1.27;;;;;;;-4.08;100.00;100777.19;6190916;23;20031;-58
2024/01/27 01:54:59;;;;;;;1.30;1.20;;;;;;;-4.16;100.00;100775.94;6205770;23;20095;-57
2024/01/27 01:57:30;;;;;;;3.38;1.35;;;;;;;-4.13;100.00;100768.41;6190907;23;20119;-57
2024/01/27 02:00:01;;;;;;;1.80;1.40;;;;;;;-4.11;100.00;100771.94;6205753;23;20837;-54
2024/01/27 02:02:31;;;;;;;1.20;1.20;;;;;;;-4.13;100.00;100763.31;6191677;23;20032;-58
2024/01/27 02:05:02;;;;;;;1.60;1.27;;;;;;;-4.10;100.00;100773.66;6205930;23;20044;-54
2024/01/27 02:07:34;;;;;;;1.40;1.30;;;;;;;-4.05;100.00;100761.16;6191327;23;20025;-58
2024/01/27 02:10:05;;;;;;;1.48;1.30;;;;;;;-4.05;100.00;100751.81;6205681;23;20081;-55
2024/01/27 02:12:35;;;;;;;1.52;1.13;;;;;;;-4.08;100.00;100746.56;6185964;23;20016;-56
2024/01/27 02:15:07;;;;;;;1.92;1.20;;;;;;;-4.18;100.00;100744.34;6203084;23;20763;-58
2024/01/27 02:17:37;;;;;;;1.75;1.23;;;;;;;-4.07;100.00;100750.84;6188599;23;20099;-57
2024/01/27 02:20:09;;;;;;;1.77;1.30;;;;;;;-3.99;100.00;100747.03;6203538;23;20054;-56
2024/01/27 02:22:41;;;;;;;1.75;1.20;;;;;;;-3.96;100.00;100741.19;6188246;23;20325;-56
2024/01/27 02:25:13;;;;;;;1.40;1.20;;;;;;;-3.96;100.00;100752.28;6202240;23;20016;-57
2024/01/27 02:27:43;;;;;;;1.23;1.15;;;;;;;-3.84;100.00;100751.13;6187928;23;20086;-57
2024/01/27 02:30:14;;;;;;;1.20;1.10;;;;;;;-3.85;100.00;100749.38;6187880;23;20105;-55
2024/01/27 02:32:45;;;;;;;1.50;1.40;;;;;;;-3.86;100.00;100747.63;6200306;23;20028;-57
2024/01/27 02:35:16;;;;;;;2.25;1.20;;;;;;;-3.84;100.00;100746.00;6186591;23;20024;-57
2024/01/27 02:37:46;;;;;;;2.03;1.27;;;;;;;-3.83;100.00;100728.22;6201200;23;20031;-58
2024/01/27 02:40:18;;;;;;;1.42;1.33;;;;;;;-3.69;100.00;100741.69;6186432;23;20729;-58
2024/01/27 02:42:49;;;;;;;3.03;1.38;;;;;;;-3.60;100.00;100744.66;6201213;23;20439;-57
2024/01/27 02:45:19;;;;;;;1.88;1.30;;;;;;;-3.68;100.00;100738.31;6186874;23;20111;-57
2024/01/27 02:47:50;;;;;;;1.20;1.10;;;;;;;-3.70;100.00;100733.09;6201914;23;20048;-57
2024/01/27 02:50:21;;;;;;;2.15;1.30;;;;;;;-3.57;100.00;100736.25;6188445;23;20518;-56
2024/01/27 02:52:52;;;;;;;2.05;1.20;;;;;;;-3.54;100.00;100727.09;6202305;23;20043;-58
2024/01/27 02:55:24;;;;;;;1.10;1.10;;;;;;;-3.56;100.00;100733.78;6188059;23;20761;-58
2024/01/27 02:57:54;;;;;;;2.05;1.20;;;;;;;-3.62;100.00;100733.50;6202545;23;20082;-59
2024/01/27 03:00:25;;;;;;;1.05;1.00;;;;;;;-3.58;100.00;100735.38;6186325;23;20020;-56
2024/01/27 03:02:58;;;;;;;1.40;1.10;;;;;;;-3.65;100.00;100738.44;6202161;23;20016;-59
2024/01/27 03:05:28;;;;;;;1.40;1.30;;;;;;;-3.65;100.00;100733.34;6188218;23;20111;-59
2024/01/27 03:07:59;;;;;;;1.95;1.42;;;;;;;-3.56;100.00;100733.78;6202542;23;20020;-58
2024/01/27 03:10:31;;;;;;;1.40;1.30;;;;;;;-3.59;100.00;100743.00;6187922;23;20024;-59
2024/01/27 03:13:01;;;;;;;1.40;1.30;;;;;;;-3.50;100.00;100744.28;6202645;23;20088;-59
2024/01/27 03:15:31;;;;;;;2.28;1.15;;;;;;;-3.51;100.00;100737.44;6186888;23;20106;-58
2024/01/27 03:18:02;;;;;;;1.40;1.30;;;;;;;-3.52;100.00;100717.81;6201698;23;20182;-59
2024/01/27 03:20:33;;;;;;;1.83;1.40;;;;;;;-3.41;100.00;100732.78;6188025;23;20021;-60
2024/01/27 03:23:03;;;;;;;1.85;1.40;;;;;;;-3.43;100.00;100734.38;6202460;23;20039;-56
2024/01/27 03:25:35;;;;;;;1.30;1.20;;;;;;;-3.49;100.00;100734.97;6187439;23;20077;-59
2024/01/27 03:28:06;;;;;;;1.38;1.23;;;;;;;-3.55;100.00;100724.44;6202542;23;20028;-59
2024/01/27 03:30:37;;;;;;;2.35;2.10;;;;;;;-3.55;100.00;100727.88;6185576;23;20054;-58
2024/01/27 03:33:10;;;;;;;1.60;1.50;;;;;;;-3.45;100.00;100730.88;6199978;23;20103;-58
2024/01/27 03:35:42;;;;;;;2.17;1.98;;;;;;;-3.51;100.00;100744.22;6187030;23;20768;-56
2024/01/27 03:38:12;;;;;;;1.30;1.20;;;;;;;-3.55;100.00;100739.78;6199343;23;20020;-54
2024/01/27 03:40:44;;;;;;;1.80;1.55;;;;;;;-3.49;100.00;100734.97;6201129;23;20099;-56
2024/01/27 03:43:15;;;;;;;1.50;1.40;;;;;;;-3.52;100.00;100748.47;6186722;23;20052;-57
2024/01/27 03:45:45;;;;;;;10.82;1.40;;;;;;;-3.54;100.00;100737.31;6201498;23;20055;-56
2024/01/27 03:48:16;;;;;;;1.35;1.23;;;;;;;-3.50;100.00;100739.19;6186984;23;20031;-57
2024/01/27 03:50:47;;;;;;;1.75;1.65;;;;;;;-3.67;100.00;100703.41;6201444;23;20055;-56
2024/01/27 03:53:17;;;;;;;1.92;1.25;;;;;;;-3.36;100.00;100747.50;6188855;23;20035;-55
2024/01/27 03:55:49;;;;;;;1.40;1.30;;;;;;;-3.47;100.00;100738.44;6203407;23;20028;-57
2024/01/27 03:58:20;;;;;;;2.95;1.52;;;;;;;-3.54;100.00;100742.41;6188619;23;20100;-57
2024/01/27 04:00:50;;;;;;;2.00;1.40;;;;;;;-3.58;100.00;100749.84;6203475;23;20107;-58
2024/01/27 04:03:21;;;;;;;2.88;1.42;;;;;;;-3.72;100.00;100744.06;6188975;23;20058;-55
2024/01/27 04:05:52;;;;;;;1.92;1.50;;;;;;;-3.69;100.00;100741.69;6203857;23;20046;-56
2024/01/27 04:08:23;;;;;;;1.65;1.20;;;;;;;-3.72;100.00;100741.50;6189623;23;20028;-56
2024/01/27 04:10:55;;;;;;;1.30;1.20;;;;;;;-3.90;100.00;100727.03;6203699;23;20020;-59
2024/01/27 04:13:26;;;;;;;1.70;1.23;;;;;;;-3.82;100.00;100749.53;6188135;23;20090;-57
2024/01/27 04:15:59;;;;;;;2.60;1.40;;;;;;;-3.84;100.00;100751.13;6202915;23;20778;-56
2024/01/27 04:18:29;;;;;;;1.30;1.20;;;;;;;-3.82;100.00;100744.41;6187153;23;20464;-57
2024/01/27 04:21:00;;;;;;;2.13;1.50;;;;;;;-4.50;100.00;100643.22;6201506;23;20024;-55
2024/01/27 04:23:32;;;;;;;2.83;1.33;;;;;;;-3.79;100.00;100754.81;6189611;23;20020;-59
2024/01/27 04:26:06;;;;;;;1.50;1.40;;;;;;;-3.77;100.00;100764.28;6202055;23;20044;-57
2024/01/27 04:28:36;;;;;;;1.40;1.30;;;;;;;-3.76;100.00;100762.59;6189399;23;20020;-58
2024/01/27 04:31:07;;;;;;;1.30;1.20;;;;;;;-4.04;100.00;100697.44;6204011;23;20107;-57
2024/01/27 04:33:38;;;;;;;1.98;1.23;;;;;;;-3.72;100.00;100754.28;6188641;23;20107;-57
2024/01/27 04:36:10;;;;;;;1.90;1.25;;;;;;;-3.72;100.00;100755.19;6203962;23;20073;-56
2024/01/27 04:38:40;;;;;;;1.45;1.23;;;;;;;-3.68;100.00;100768.97;6188634;23;20078;-56
2024/01/27 04:41:12;;;;;;;1.40;1.30;;;;;;;-3.65;100.00;100758.88;6204444;23;20111;-54
2024/01/27 04:43:43;;;;;;;2.15;1.67;;;;;;;-3.65;100.00;100755.47;6187915;23;20024;-58
2024/01/27 04:46:14;;;;;;;1.40;1.30;;;;;;;-3.67;100.00;100752.81;6190975;23;20017;-58
2024/01/27 04:48:44;;;;;;;1.55;1.38;;;;;;;-3.70;100.00;100760.34;6203253;23;20107;-56
2024/01/27 04:51:15;;;;;;;1.65;1.33;;;;;;;-3.74;100.00;100766.97;6188895;23;20031;-55
2024/01/27 04:53:46;;;;;;;1.20;1.10;;;;;;;-3.74;100.00;100754.22;6203505;23;20511;-56
2024/01/27 04:56:18;;;;;;;1.30;1.20;;;;;;;-3.74;100.00;100764.44;6189257;23;20020;-58
2024/01/27 04:58:48;;;;;;;1.30;1.20;;;;;;;-3.70;100.00;100775.66;6202256;23;20502;-57
2024/01/27 05:01:19;;;;;;;2.25;1.27;;;;;;;-3.66;100.00;100761.38;6187865;23;20097;-56
2024/01/27 05:03:50;;;;;;;1.85;1.50;;;;;;;-3.67;100.00;100769.81;6203140;23;20031;-59
2024/01/27 05:06:20;;;;;;;1.70;1.40;;;;;;;-3.69;100.00;100773.19;6188866;23;20055;-57
2024/01/27 05:08:51;;;;;;;1.70;1.50;;;;;;;-3.68;100.00;100771.50;6203740;23;20028;-56
2024/01/27 05:11:33;;;;;;;2.70;1.30;;;;;;;-3.65;100.00;100763.13;6188904;23;20440;-55
2024/01/27 05:14:04;;;;;;;1.55;1.20;;;;;;;-3.67;100.00;100768.13;6202915;23;20024;-54
2024/01/27 05:16:35;;;;;;;2.05;1.20;;;;;;;-3.64;100.00;100780.19;6189066;23;20150;-53
2024/01/27 05:19:05;;;;;;;1.63;1.52;;;;;;;-3.64;100.00;100770.88;6203919;23;20020;-56
2024/01/27 05:21:36;;;;;;;1.25;1.15;;;;;;;-3.57;100.00;100778.03;6189324;23;20044;-57
2024/01/27 05:24:07;;;;;;;1.90;1.17;;;;;;;-3.52;100.00;100781.69;6203833;23;20048;-58
2024/01/27 05:26:39;;;;;;;1.30;1.20;;;;;;;-3.53;100.00;100782.47;6189861;23;20027;-57
2024/01/27 05:29:10;;;;;;;1.20;1.10;;;;;;;-3.47;100.00;100777.66;6204106;23;20120;-58
2024/01/27 05:31:43;;;;;;;1.58;1.13;;;;;;;-3.43;100.00;100783.78;6188853;23;20020;-56
2024/01/27 05:34:14;;;;;;;1.85;1.25;;;;;;;-3.47;100.00;100770.00;6193866;23;20035;-57
2024/01/27 05:36:44;;;;;;;1.65;1.10;;;;;;;-3.39;100.00;100789.94;6203236;23;20028;-56
2024/01/27 05:39:16;;;;;;;1.30;1.20;;;;;;;-3.36;100.00;100795.19;6187869;23;20089;-58
2024/01/27 05:41:48;;;;;;;1.27;1.17;;;;;;;-3.33;100.00;100795.34;6204435;23;20662;-57
2024/01/27 05:44:21;;;;;;;1.40;1.30;;;;;;;-3.37;100.00;100775.53;6191402;23;20020;-58
2024/01/27 05:46:52;;;;;;;1.10;1.10;;;;;;;-3.36;100.00;100805.41;6203433;23;20047;-56
2024/01/27 05:49:22;;;;;;;1.35;1.10;;;;;;;-3.35;100.00;100794.38;6188259;23;20735;-59
2024/01/27 05:51:53;;;;;;;1.60;1.02;;;;;;;-3.38;100.00;100804.47;6203342;23;20023;-59
2024/01/27 05:54:24;;;;;;;1.30;1.10;;;;;;;-3.42;100.00;100803.44;6188208;23;20523;-58
2024/01/27 05:56:55;;;;;;;2.15;1.13;;;;;;;-3.47;100.00;100810.88;6203272;23;20024;-57
2024/01/27 05:59:26;;;;;;;1.30;1.20;;;;;;;-3.53;100.00;100812.25;6189036;23;20024;-57
2024/01/27 06:01:57;;;;;;;4.00;1.42;;;;;;;-3.55;100.00;100817.28;6202768;23;20063;-59
2024/01/27 06:04:28;;;;;;;1.25;1.08;;;;;;;-3.56;100.00;100815.53;6188335;23;20109;-57
2024/01/27 06:06:58;;;;;;;1.25;1.15;;;;;;;-3.53;100.00;100818.22;6203033;23;20341;-59
2024/01/27 06:09:29;;;;;;;1.10;1.00;;;;;;;-3.53;100.00;100814.81;6188011;23;20038;-58
2024/01/27 06:12:03;;;;;;;3.85;1.20;;;;;;;-3.55;100.00;100819.81;6202634;23;20114;-58
2024/01/27 06:14:33;;;;;;;2.08;1.30;;;;;;;-3.55;100.00;100822.38;6188701;23;20100;-59
2024/01/27 06:17:06;;;;;;;1.50;1.40;;;;;;;-3.59;100.00;100820.50;6202912;23;20041;-59
2024/01/27 06:19:36;;;;;;;1.20;1.10;;;;;;;-3.61;100.00;100827.19;6188196;23;20039;-57
2024/01/27 06:22:07;;;;;;;1.30;1.20;;;;;;;-3.71;100.00;100809.69;6203084;23;20020;-57
2024/01/27 06:24:45;;;;;;;1.13;1.10;;;;;;;-3.74;100.00;100819.75;6187479;23;20120;-58
2024/01/27 06:27:17;;;;;;;1.17;1.15;;;;;;;-3.81;100.00;100822.78;6188411;23;20027;-57
2024/01/27 06:29:48;;;;;;;1.48;1.30;;;;;;;-3.84;100.00;100822.59;6202767;23;20647;-59
2024/01/27 06:32:18;;;;;;;1.92;1.30;;;;;;;-3.82;100.00;100821.00;6188782;23;20035;-58
2024/01/27 06:34:49;;;;;;;1.30;1.13;;;;;;;-3.83;100.00;100829.47;6202787;23;20083;-56
2024/01/27 06:37:19;;;;;;;2.38;1.98;;;;;;;-3.83;100.00;100819.28;6187906;23;20388;-58
2024/01/27 06:39:52;;;;;;;1.50;1.40;;;;;;;-3.84;100.00;100828.63;6202305;23;20038;-59
2024/01/27 06:42:24;;;;;;;1.63;1.52;;;;;;;-3.87;100.00;100822.47;6187727;23;20020;-60
2024/01/27 06:44:54;;;;;;;4.40;2.30;;;;;;;-3.91;100.00;100827.41;6202069;23;20024;-59
2024/01/27 06:47:25;;;;;;;2.00;1.48;;;;;;;-3.95;100.00;100832.28;6188471;23;20020;-59
2024/01/27 06:49:56;;;;;;;3.97;1.40;;;;;;;-3.94;100.00;100827.28;6202632;23;20020;-58
2024/01/27 06:52:26;;;;;;;1.75;1.40;;;;;;;-3.95;100.00;100845.91;6188162;23;20063;-58
2024/01/27 06:54:57;;;;;;;2.00;1.30;;;;;;;-4.02;100.00;100833.66;6202601;23;20027;-60
2024/01/27 06:57:29;;;;;;;1.63;1.50;;;;;;;-4.05;100.00;100843.69;6187910;23;20457;-58
2024/01/27 07:00:00;;;;;;;1.23;1.13;;;;;;;-4.07;100.00;100840.19;6202372;23;20042;-57
2024/01/27 07:02:30;;;;;;;1.52;1.30;;;;;;;-4.10;100.00;100832.38;6188945;23;20071;-60
2024/01/27 07:05:01;;;;;;;1.60;1.50;;;;;;;-4.13;100.00;100835.66;6202902;23;20047;-56
2024/01/27 07:07:32;;;;;;;2.03;1.40;;;;;;;-4.14;100.00;100835.59;6188334;23;20078;-60
2024/01/27 07:10:02;;;;;;;2.60;1.55;;;;;;;-4.17;100.00;100830.31;6202747;23;20027;-60
2024/01/27 07:12:34;;;;;;;1.27;1.17;;;;;;;-4.22;100.00;100834.28;6187832;23;20036;-59
2024/01/27 07:15:05;;;;;;;1.98;1.20;;;;;;;-4.27;100.00;100828.06;6202479;23;20082;-58
2024/01/27 07:17:35;;;;;;;2.10;1.40;;;;;;;-4.31;100.00;100850.00;6188402;23;20441;-57
2024/01/27 07:20:07;;;;;;;1.50;1.40;;;;;;;-4.34;100.00;100840.53;6202775;23;20028;-58
2024/01/27 07:22:38;;;;;;;1.25;1.15;;;;;;;-4.37;100.00;100840.38;6187299;23;20190;-57
2024/01/27 07:25:10;;;;;;;1.23;1.13;;;;;;;-4.40;100.00;100850.38;6202699;23;20020;-59
2024/01/27 07:27:42;;;;;;;2.60;1.33;;;;;;;-4.42;100.00;100852.00;6188161;23;20020;-58
2024/01/27 07:30:13;;;;;;;1.25;1.20;;;;;;;-4.42;100.00;100863.84;6203009;23;20027;-56
2024/01/27 07:32:45;;;;;;;1.63;1.23;;;;;;;-4.42;100.00;100862.22;6204971;23;20028;-60
2024/01/27 07:35:16;;;;;;;5.25;1.50;;;;;;;-4.42;100.00;100867.31;6188812;23;20437;-59
2024/01/27 07:37:46;;;;;;;1.58;1.30;;;;;;;-4.51;100.00;100856.59;6204935;23;20378;-59
2024/01/27 07:40:17;;;;;;;1.25;1.20;;;;;;;-4.46;100.00;100865.38;6189884;23;20312;-57
2024/01/27 07:42:49;;;;;;;2.10;1.52;;;;;;;-4.45;100.00;100869.66;6204421;23;20062;-60
2024/01/27 07:45:19;;;;;;;1.42;1.33;;;;;;;-4.47;100.00;100868.69;6189382;23;20030;-59
2024/01/27 07:47:50;;;;;;;2.25;1.65;;;;;;;-4.46;100.00;100873.03;6203839;23;20024;-58
2024/01/27 07:50:22;;;;;;;1.77;1.60;;;;;;;-4.48;100.00;100866.97;6189789;23;20016;-56
2024/01/27 07:52:53;;;;;;;2.28;1.60;;;;;;;-4.48;100.00;100877.16;6204710;23;20348;-59
2024/01/27 07:55:23;;;;;;;1.77;1.58;;;;;;;-4.49;100.00;100870.31;6189390;23;20078;-57
2024/01/27 07:57:55;;;;;;;2.58;1.85;;;;;;;-4.49;100.00;100880.53;6204188;23;20078;-57
2024/01/27 08:00:26;;;;;;;3.70;1.70;;;;;;;-4.49;100.00;100874.53;6189635;23;20026;-60
2024/01/27 08:02:56;;;;;;;2.00;1.63;;;;;;;-4.48;100.00;100876.28;6204125;23;20380;-57
2024/01/27 08:05:27;;;;;;;1.70;1.50;;;;;;;-4.48;100.00;100882.25;6189814;23;20035;-57
2024/01/27 08:07:58;;;;;;;7.75;2.10;;;;;;;-4.47;100.00;100881.47;6204373;23;20020;-57
2024/01/27 08:10:28;;;;;;;4.85;1.85;;;;;;;-4.48;100.00;100887.38;6189621;23;20336;-58
2024/01/27 08:13:00;;;;;;;2.03;1.70;;;;;;;-4.49;100.00;100889.81;6203729;23;20048;-59
2024/01/27 08:15:30;;;;;;;4.47;1.80;;;;;;;-4.72;100.00;100855.44;6189141;23;20023;-59
2024/01/27 08:18:01;;;;;;;3.05;1.80;;;;;;;-4.47;100.00;100896.75;6203341;23;20038;-58
2024/01/27 08:20:31;;;;;;;3.97;1.88;;;;;;;-4.45;100.00;100897.72;6188883;23;24749;-57
2024/01/27 08:23:03;;;;;;;2.40;1.80;;;;;;;-4.43;100.00;100893.59;6204120;23;20102;-58
2024/01/27 08:25:36;;;;;;;4.00;1.70;;;;;;;-4.43;100.00;100895.28;6188668;23;20020;-59
2024/01/27 08:28:09;;;;;;;1.70;1.40;;;;;;;-4.44;100.00;100899.50;6204542;23;20115;-56
2024/01/27 08:30:40;;;;;;;2.03;1.83;;;;;;;-4.43;100.00;100896.16;6188241;23;20089;-58
2024/01/27 08:33:10;;;;;;;4.53;2.47;;;;;;;-4.43;100.00;100906.34;6203942;23;20023;-56
2024/01/27 08:35:41;;;;;;;3.08;1.70;;;;;;;-4.45;100.00;100902.84;6189051;23;20035;-59
2024/01/27 08:38:11;;;;;;;3.17;1.70;;;;;;;-4.45;100.00;100897.72;6204263;23;20111;-56
2024/01/27 08:40:41;;;;;;;3.90;1.80;;;;;;;-4.44;100.00;100896.06;6189089;23;20020;-56
2024/01/27 08:43:14;;;;;;;3.40;1.80;;;;;;;-4.45;100.00;100907.94;6203872;23;20032;-55
2024/01/27 08:45:44;;;;;;;2.58;1.60;;;;;;;-4.44;100.00;100909.72;6204020;23;20051;-58
2024/01/27 08:48:15;;;;;;;2.25;1.80;;;;;;;-4.44;100.00;100912.25;6188214;23;20024;-59
2024/01/27 08:50:45;;;;;;;4.70;1.88;;;;;;;-4.50;100.00;100904.25;6203751;23;20562;-58
2024/01/27 08:53:16;;;;;;;2.20;1.80;;;;;;;-4.43;100.00;100916.56;6189860;23;20044;-57
2024/01/27 08:55:46;;;;;;;6.07;2.15;;;;;;;-4.41;100.00;100921.75;6203401;23;20097;-57
2024/01/27 08:58:18;;;;;;;1.77;1.67;;;;;;;-4.62;100.00;100888.28;6188911;23;20479;-57
2024/01/27 09:00:48;;;;;;;3.03;2.10;;;;;;;-4.40;100.00;100926.03;6203520;23;20104;-56
2024/01/27 09:03:20;;;;;;;5.78;1.90;;;;;;;-4.40;100.00;100921.81;6189202;23;20020;-58
2024/01/27 09:05:50;;;;;;;2.05;1.58;;;;;;;-4.37;100.00;100936.41;6203600;23;20047;-58
2024/01/27 09:08:21;;;;;;;1.58;1.48;;;;;;;-4.35;100.00;100929.72;6189370;23;20035;-58
2024/01/27 09:10:52;;;;;;;2.45;1.67;;;;;;;-4.35;100.00;100930.59;6203288;23;20099;-60
2024/01/27 09:13:24;;;;;;;4.13;1.70;;;;;;;-4.36;100.00;100933.94;6188744;23;20051;-54
2024/01/27 09:15:54;;;;;;;5.15;1.90;;;;;;;-4.35;100.00;100935.69;6203379;23;20031;-58
2024/01/27 09:18:25;;;;;;;4.03;1.80;;;;;;;-4.47;100.00;100914.63;6188798;23;20043;-58
2024/01/27 09:20:57;;;;;;;2.05;1.85;;;;;;;-4.35;100.00;100942.47;6203427;23;20016;-59
2024/01/27 09:23:27;;;;;;;3.80;1.70;;;;;;;-4.36;100.00;100943.28;6189124;23;20020;-58
2024/01/27 09:25:58;;;;;;;2.95;1.63;;;;;;;-4.37;100.00;100947.50;6203027;23;20487;-56
2024/01/27 09:28:30;;;;;;;3.80;1.95;;;;;;;-4.37;100.00;100947.50;6188327;23;20111;-56
2024/01/27 09:31:01;;;;;;;3.75;1.90;;;;;;;-4.37;100.00;100947.50;6202896;23;20082;-58
2024/01/27 09:33:34;;;;;;;4.13;1.88;;;;;;;-4.37;100.00;100946.63;6188484;23;20114;-56
2024/01/27 09:36:06;;;;;;;4.25;1.75;;;;;;;-4.75;100.00;100886.75;6203334;23;20865;-55
2024/01/27 09:38:36;;;;;;;2.65;1.60;;;;;;;-4.36;100.00;100954.34;6189278;23;20020;-58
2024/01/27 09:41:07;;;;;;;2.80;1.83;;;;;;;-4.38;100.00;100955.94;6204376;23;20031;-58
2024/01/27 09:43:42;;;;;;;1.88;1.63;;;;;;;-4.38;100.00;100943.19;6188183;23;20309;-58
2024/01/27 09:46:12;;;;;;;2.70;1.60;;;;;;;-4.38;100.00;100940.63;6201108;23;20020;-55
2024/01/27 09:48:43;;;;;;;2.58;1.73;;;;;;;-4.37;100.00;100950.06;6203458;23;20058;-56
2024/01/27 09:51:14;;;;;;;1.90;1.70;;;;;;;-4.39;100.00;100949.09;6189645;23;20416;-55
2024/01/27 09:53:44;;;;;;;1.92;1.40;;;;;;;-4.38;100.00;100948.28;6202819;23;20737;-58
2024/01/27 09:56:17;;;;;;;2.17;1.65;;;;;;;-4.38;100.00;100953.41;6188052;23;20613;-56
2024/01/27 09:58:49;;;;;;;2.70;1.80;;;;;;;-4.38;100.00;100950.84;6202967;23;20024;-58
2024/01/27 10:01:21;;;;;;;2.30;1.60;;;;;;;-4.37;100.00;100947.50;6187861;23;20020;-57
2024/01/27 10:03:52;;;;;;;2.38;1.60;;;;;;;-4.39;100.00;100944.00;6202852;23;20082;-58
2024/01/27 10:06:23;;;;;;;2.15;1.42;;;;;;;-4.39;100.00;100946.53;6187948;23;20107;-58
2024/01/27 10:08:56;;;;;;;1.52;1.30;;;;;;;-4.49;100.00;100929.00;6202871;23;20107;-58
2024/01/27 10:11:27;;;;;;;1.50;1.40;;;;;;;-4.37;100.00;100952.63;6188294;23;20016;-55
2024/01/27 10:14:01;;;;;;;1.50;1.40;;;;;;;-4.38;100.00;100940.63;6202697;23;20020;-58
2024/01/27 10:16:42;;;;;;;1.42;1.33;;;;;;;-4.36;100.00;100949.25;6187826;23;20090;-55
2024/01/27 10:19:18;;;;;;;3.30;1.60;;;;;;;-4.38;100.00;100945.75;6200244;23;20024;-57
2024/01/27 10:21:49;;;;;;;2.15;1.40;;;;;;;-4.60;100.00;100907.97;6202378;23;20028;-57
2024/01/27 10:24:19;;;;;;;1.50;1.40;;;;;;;-4.37;100.00;100946.63;6187079;23;20504;-57
2024/01/27 10:26:50;;;;;;;3.33;1.80;;;;;;;-4.37;100.00;100947.50;6202780;23;20065;-56
2024/01/27 10:29:22;;;;;;;3.80;2.10;;;;;;;-4.38;100.00;100955.94;6188424;23;20034;-55
2024/01/27 10:31:53;;;;;;;2.00;1.60;;;;;;;-4.37;100.00;100952.63;6202929;23;20028;-56
2024/01/27 10:34:26;;;;;;;2.92;1.80;;;;;;;-4.36;100.00;100959.47;6186790;23;20024;-56
2024/01/27 10:36:57;;;;;;;4.97;1.88;;;;;;;-4.35;100.00;100951.00;6201516;23;20024;-56
2024/01/27 10:39:28;;;;;;;3.40;1.60;;;;;;;-4.34;100.00;100957.88;6187902;23;20606;-54
2024/01/27 10:42:03;;;;;;;5.05;2.00;;;;;;;-4.36;100.00;100959.47;6202857;23;20125;-55
2024/01/27 10:44:39;;;;;;;3.88;2.20;;;;;;;-4.33;100.00;100958.75;6188398;23;20024;-53
2024/01/27 10:47:17;;;;;;;3.35;1.80;;;;;;;-4.32;100.00;100965.59;6203338;23;20075;-56
2024/01/27 10:49:49;;;;;;;2.88;2.00;;;;;;;-4.32;100.00;100954.53;6187745;23;20035;-55
2024/01/27 10:52:23;;;;;;;2.90;2.00;;;;;;;-4.33;100.00;100958.75;6187766;23;20026;-58
2024/01/27 10:54:54;;;;;;;4.57;1.63;;;;;;;-4.34;100.00;100957.88;6202803;23;20410;-56
2024/01/27 10:57:26;;;;;;;2.15;1.90;;;;;;;-4.31;100.00;100966.50;6188080;23;20087;-59
2024/01/27 10:59:59;;;;;;;2.88;1.75;;;;;;;-4.64;100.00;100905.16;6202849;23;20119;-58
2024/01/27 11:02:34;;;;;;;4.00;1.95;;;;;;;-4.31;100.00;100957.16;6188061;23;20024;-57
2024/01/27 11:05:09;;;;;;;1.83;1.70;;;;;;;-4.31;100.00;100957.16;6203368;23;20024;-57
2024/01/27 11:07:41;;;;;;;2.72;1.70;;;;;;;-4.30;100.00;100960.59;6186472;23;20111;-59
2024/01/27 11:10:12;;;;;;;2.25;1.88;;;;;;;-4.28;100.00;100966.66;6202575;23;20066;-56
2024/01/27 11:12:42;;;;;;;4.47;1.80;;;;;;;-4.38;100.00;100945.75;6186573;23;20058;-54
2024/01/27 11:15:15;;;;;;;2.58;1.52;;;;;;;-4.29;100.00;100954.69;6196765;22;20204;-58
2024/01/27 11:17:46;;;;;;;3.35;1.90;;;;;;;-4.29;100.00;100967.44;6202487;23;20020;-56
2024/01/27 11:20:17;;;;;;;2.15;1.85;;;;;;;-4.28;100.00;100971.75;6187161;23;20016;-55
2024/01/27 11:22:49;;;;;;;1.85;1.63;;;;;;;-4.31;100.00;100967.38;6202995;23;20074;-59
2024/01/27 11:25:20;;;;;;;2.78;1.73;;;;;;;-4.41;100.00;100952.38;6187046;23;20111;-59
2024/01/27 11:27:51;;;;;;;3.58;2.13;;;;;;;-4.27;100.00;100973.50;6202756;23;20894;-57
2024/01/27 11:30:30;;;;;;;3.60;1.92;;;;;;;-4.27;100.00;100973.50;6186944;23;20043;-59
2024/01/27 11:33:04;;;;;;;2.15;1.80;;;;;;;-4.25;100.00;100974.47;6202606;23;20032;-56
2024/01/27 11:35:35;;;;;;;3.60;1.70;;;;;;;-4.24;100.00;100978.78;6188245;23;20574;-59